MSC Annamaria — H3HN — position and weather

sailwx.info

Track history (hours):
 
Tides and Currents Weather Stations Pressure Air Temp Water Temp Dewpoint Dewpoint Depression Visibility Wind Speed Wind Dir Waves Ship Positions

MSC Annamaria

Last reported at 2014-Oct-01 11:22 UTC. Time now 2014-Oct-01 12:15 UTC.
Position N 37°57' E 023°36'.

Length 188 m; draft 10 m.

Type: Ship (hazmat cat A). MMSI: 353852000.

Date/timePositionNaut miles runAvg speedWind from/ knotsBaromVisibWave heightAir tempDewpointWater temp
2014-Oct-01 11:22N 37°57' E 023°36'0 0.0
2014-Oct-01 10:29N 37°57' E 023°36'0 0.0
2014-Oct-01 09:31N 37°57' E 023°36'0 0.0
2014-Oct-01 08:33N 37°57' E 023°36'0 0.0
2014-Oct-01 07:31N 37°57' E 023°36'0 0.0
2014-Oct-01 06:32N 37°57' E 023°36'0 0.0
2014-Oct-01 05:31N 37°57' E 023°36'3 2.8
2014-Oct-01 04:33N 37°55' E 023°36'1 1.1
2014-Oct-01 03:33N 37°54' E 023°35'7 7.5
2014-Oct-01 02:33N 37°48' E 023°41'1111.1
2014-Oct-01 01:33N 37°37' E 023°44'5 1.7
2014-Sep-30 22:29N 37°32' E 023°43'4 1.1
2014-Sep-30 18:27N 37°33' E 023°49'8 9.4
2014-Sep-30 17:33N 37°29' E 023°39'8 0.3
2014-Sep-29 17:27N 37°31' E 023°48'5 5.8
2014-Sep-29 16:33N 37°36' E 023°51'1312.4
2014-Sep-29 15:28N 37°38' E 024°08'1914.4
2014-Sep-29 14:09N 37°50' E 024°26'2913.8
2014-Sep-29 12:05N 38°08' E 024°55'  
2014-Sep-26 09:15N 37°35' E 025°53'913.1
2014-Sep-26 08:33N 37°27' E 025°58'1313.2
2014-Sep-26 07:33N 37°18' E 026°11'1313.1
2014-Sep-26 06:33N 37°09' E 026°23'1312.7
2014-Sep-26 05:31N 36°59' E 026°34'1412.6
2014-Sep-26 04:26N 36°48' E 026°44'1112.6
2014-Sep-26 03:33N 36°40' E 026°53'  
Track history (hours):
 
Tides and Currents Weather Stations Pressure Air Temp Water Temp Dewpoint Dewpoint Depression Visibility Wind Speed Wind Dir Waves Ship Positions

MSC Annamaria

Last reported at 2014-Oct-01 11:22 UTC. Time now 2014-Oct-01 12:15 UTC.
Position N 37°57' E 023°36'.

Length 188 m; draft 10 m.

Type: Ship (hazmat cat A). MMSI: 353852000.

Date/timePositionNaut miles runAvg speedWind from/ knotsBaromVisibWave heightAir tempDewpointWater temp
2014-Oct-01 11:22N 37°57' E 023°36'0 0.0
2014-Oct-01 10:29N 37°57' E 023°36'0 0.0
2014-Oct-01 09:31N 37°57' E 023°36'0 0.0
2014-Oct-01 08:33N 37°57' E 023°36'0 0.0
2014-Oct-01 07:31N 37°57' E 023°36'0 0.0
2014-Oct-01 06:32N 37°57' E 023°36'0 0.0
2014-Oct-01 05:31N 37°57' E 023°36'3 2.8
2014-Oct-01 04:33N 37°55' E 023°36'1 1.1
2014-Oct-01 03:33N 37°54' E 023°35'7 7.5
2014-Oct-01 02:33N 37°48' E 023°41'1111.1
2014-Oct-01 01:33N 37°37' E 023°44'5 1.7
2014-Sep-30 22:29N 37°32' E 023°43'4 1.1
2014-Sep-30 18:27N 37°33' E 023°49'8 9.4
2014-Sep-30 17:33N 37°29' E 023°39'8 0.3
2014-Sep-29 17:27N 37°31' E 023°48'5 5.8
2014-Sep-29 16:33N 37°36' E 023°51'1312.4
2014-Sep-29 15:28N 37°38' E 024°08'1914.4
2014-Sep-29 14:09N 37°50' E 024°26'2913.8
2014-Sep-29 12:05N 38°08' E 024°55'  
2014-Sep-26 09:15N 37°35' E 025°53'913.1
2014-Sep-26 08:33N 37°27' E 025°58'1313.2
2014-Sep-26 07:33N 37°18' E 026°11'1313.1
2014-Sep-26 06:33N 37°09' E 026°23'1312.7
2014-Sep-26 05:31N 36°59' E 026°34'1412.6
2014-Sep-26 04:26N 36°48' E 026°44'1112.6
2014-Sep-26 03:33N 36°40' E 026°53'  

Dump ship's entire track history